sensor_id;sensor_type;location;lat;lon;timestamp;P1;durP1;ratioP1;P2;durP2;ratioP2
64832;SDS011;51290;45.060;38.948;2023-06-22T05:44:31;18.23;;;8.82;;
64832;SDS011;51290;45.060;38.948;2023-06-22T05:46:59;20.25;;;8.95;;
64832;SDS011;51290;45.060;38.948;2023-06-22T05:49:25;15.43;;;8.35;;
64832;SDS011;51290;45.060;38.948;2023-06-22T05:51:58;17.88;;;9.32;;
64832;SDS011;51290;45.060;38.948;2023-06-22T05:54:25;12.52;;;8.10;;
64832;SDS011;51290;45.060;38.948;2023-06-22T05:56:52;14.98;;;7.88;;
64832;SDS011;51290;45.060;38.948;2023-06-22T05:59:19;19.73;;;10.05;;
64832;SDS011;51290;45.060;38.948;2023-06-22T06:01:45;13.38;;;8.18;;
64832;SDS011;51290;45.060;38.948;2023-06-22T06:04:16;13.00;;;7.53;;
64832;SDS011;51290;45.060;38.948;2023-06-22T06:06:45;13.80;;;8.43;;
64832;SDS011;51290;45.060;38.948;2023-06-22T06:09:13;17.27;;;8.02;;
64832;SDS011;51290;45.060;38.948;2023-06-22T06:11:41;15.93;;;8.23;;
64832;SDS011;51290;45.060;38.948;2023-06-22T06:14:07;15.52;;;8.70;;
64832;SDS011;51290;45.060;38.948;2023-06-22T06:16:33;15.43;;;8.07;;
64832;SDS011;51290;45.060;38.948;2023-06-22T06:18:59;23.52;;;9.35;;
64832;SDS011;51290;45.060;38.948;2023-06-22T06:21:25;15.80;;;7.45;;
64832;SDS011;51290;45.060;38.948;2023-06-22T06:23:51;13.45;;;8.52;;
64832;SDS011;51290;45.060;38.948;2023-06-22T06:26:18;13.60;;;7.70;;
64832;SDS011;51290;45.060;38.948;2023-06-22T06:28:57;18.52;;;7.82;;
64832;SDS011;51290;45.060;38.948;2023-06-22T06:31:23;12.95;;;7.30;;
64832;SDS011;51290;45.060;38.948;2023-06-22T06:33:50;11.55;;;8.18;;
64832;SDS011;51290;45.060;38.948;2023-06-22T06:36:16;10.95;;;7.78;;
64832;SDS011;51290;45.060;38.948;2023-06-22T06:38:42;14.15;;;7.32;;
64832;SDS011;51290;45.060;38.948;2023-06-22T06:41:08;10.18;;;6.70;;
64832;SDS011;51290;45.060;38.948;2023-06-22T06:43:34;13.52;;;8.90;;
64832;SDS011;51290;45.060;38.948;2023-06-22T06:46:00;13.35;;;8.57;;
64832;SDS011;51290;45.060;38.948;2023-06-22T06:48:28;12.60;;;7.70;;
64832;SDS011;51290;45.060;38.948;2023-06-22T06:50:54;11.80;;;8.43;;
64832;SDS011;51290;45.060;38.948;2023-06-22T06:53:20;8.52;;;7.03;;
64832;SDS011;51290;45.060;38.948;2023-06-22T06:55:46;14.15;;;8.20;;
64832;SDS011;51290;45.060;38.948;2023-06-22T06:58:12;11.95;;;7.25;;
64832;SDS011;51290;45.060;38.948;2023-06-22T07:00:39;11.73;;;7.03;;
64832;SDS011;51290;45.060;38.948;2023-06-22T07:03:05;15.55;;;8.50;;
64832;SDS011;51290;45.060;38.948;2023-06-22T07:05:32;13.05;;;7.75;;
64832;SDS011;51290;45.060;38.948;2023-06-22T07:07:58;12.40;;;7.05;;
64832;SDS011;51290;45.060;38.948;2023-06-22T07:10:24;10.20;;;6.80;;
64832;SDS011;51290;45.060;38.948;2023-06-22T07:12:50;13.38;;;8.27;;
64832;SDS011;51290;45.060;38.948;2023-06-22T07:15:16;11.32;;;6.75;;
64832;SDS011;51290;45.060;38.948;2023-06-22T07:17:42;13.98;;;7.05;;
64832;SDS011;51290;45.060;38.948;2023-06-22T07:20:09;10.88;;;7.40;;
64832;SDS011;51290;45.060;38.948;2023-06-22T07:22:40;11.75;;;6.88;;
64832;SDS011;51290;45.060;38.948;2023-06-22T07:25:08;11.23;;;6.63;;
64832;SDS011;51290;45.060;38.948;2023-06-22T07:27:38;10.35;;;6.95;;
64832;SDS011;51290;45.060;38.948;2023-06-22T07:30:09;7.15;;;5.78;;
64832;SDS011;51290;45.060;38.948;2023-06-22T07:32:35;11.00;;;6.25;;
64832;SDS011;51290;45.060;38.948;2023-06-22T07:35:02;10.43;;;5.90;;
64832;SDS011;51290;45.060;38.948;2023-06-22T07:37:28;12.02;;;5.63;;
64832;SDS011;51290;45.060;38.948;2023-06-22T07:39:54;9.63;;;6.20;;
64832;SDS011;51290;45.060;38.948;2023-06-22T07:42:24;9.00;;;6.57;;
64832;SDS011;51290;45.060;38.948;2023-06-22T07:44:51;9.57;;;5.70;;
64832;SDS011;51290;45.060;38.948;2023-06-22T07:47:17;11.05;;;5.93;;
64832;SDS011;51290;45.060;38.948;2023-06-22T07:49:50;9.05;;;5.70;;
64832;SDS011;51290;45.060;38.948;2023-06-22T07:52:17;8.70;;;4.90;;
64832;SDS011;51290;45.060;38.948;2023-06-22T07:54:43;9.98;;;5.30;;
64832;SDS011;51290;45.060;38.948;2023-06-22T07:57:09;7.95;;;5.63;;
64832;SDS011;51290;45.060;38.948;2023-06-22T07:59:35;8.40;;;5.40;;
64832;SDS011;51290;45.060;38.948;2023-06-22T08:02:02;8.77;;;4.32;;
64832;SDS011;51290;45.060;38.948;2023-06-22T08:04:28;9.27;;;6.00;;
64832;SDS011;51290;45.060;38.948;2023-06-22T08:06:56;13.05;;;5.45;;
64832;SDS011;51290;45.060;38.948;2023-06-22T08:09:22;9.48;;;5.25;;
64832;SDS011;51290;45.060;38.948;2023-06-22T08:11:48;11.00;;;5.20;;
64832;SDS011;51290;45.060;38.948;2023-06-22T08:14:14;8.45;;;5.20;;
64832;SDS011;51290;45.060;38.948;2023-06-22T08:16:41;6.82;;;4.43;;
64832;SDS011;51290;45.060;38.948;2023-06-22T08:19:07;10.15;;;5.35;;
64832;SDS011;51290;45.060;38.948;2023-06-22T08:21:34;7.82;;;5.22;;
64832;SDS011;51290;45.060;38.948;2023-06-22T08:24:01;8.00;;;4.55;;
64832;SDS011;51290;45.060;38.948;2023-06-22T08:26:27;5.15;;;4.45;;
64832;SDS011;51290;45.060;38.948;2023-06-22T08:28:53;13.73;;;5.68;;
64832;SDS011;51290;45.060;38.948;2023-06-22T08:31:20;9.45;;;4.55;;
64832;SDS011;51290;45.060;38.948;2023-06-22T08:33:46;8.98;;;4.70;;
64832;SDS011;51290;45.060;38.948;2023-06-22T08:36:12;10.98;;;5.25;;
64832;SDS011;51290;45.060;38.948;2023-06-22T08:38:39;6.78;;;4.85;;
64832;SDS011;51290;45.060;38.948;2023-06-22T08:41:05;8.07;;;4.78;;
64832;SDS011;51290;45.060;38.948;2023-06-22T08:43:31;7.15;;;4.75;;
64832;SDS011;51290;45.060;38.948;2023-06-22T08:45:57;7.30;;;4.70;;
64832;SDS011;51290;45.060;38.948;2023-06-22T08:48:23;7.88;;;5.07;;
64832;SDS011;51290;45.060;38.948;2023-06-22T08:50:49;8.18;;;4.85;;
64832;SDS011;51290;45.060;38.948;2023-06-22T08:53:15;8.90;;;4.65;;
64832;SDS011;51290;45.060;38.948;2023-06-22T08:55:41;9.43;;;4.53;;
64832;SDS011;51290;45.060;38.948;2023-06-22T08:58:07;9.38;;;5.03;;
64832;SDS011;51290;45.060;38.948;2023-06-22T09:00:33;8.65;;;4.43;;
64832;SDS011;51290;45.060;38.948;2023-06-22T09:03:00;8.13;;;4.18;;
64832;SDS011;51290;45.060;38.948;2023-06-22T09:05:26;11.55;;;4.97;;
64832;SDS011;51290;45.060;38.948;2023-06-22T09:07:52;6.03;;;4.40;;
64832;SDS011;51290;45.060;38.948;2023-06-22T09:10:20;5.38;;;4.47;;
64832;SDS011;51290;45.060;38.948;2023-06-22T09:12:46;9.00;;;4.78;;
64832;SDS011;51290;45.060;38.948;2023-06-22T09:15:12;8.23;;;5.10;;
64832;SDS011;51290;45.060;38.948;2023-06-22T09:17:38;6.30;;;4.60;;
64832;SDS011;51290;45.060;38.948;2023-06-22T09:20:06;8.30;;;5.10;;
64832;SDS011;51290;45.060;38.948;2023-06-22T09:22:35;13.60;;;5.18;;
64832;SDS011;51290;45.060;38.948;2023-06-22T09:25:01;8.50;;;4.93;;
64832;SDS011;51290;45.060;38.948;2023-06-22T09:27:28;7.22;;;4.85;;
64832;SDS011;51290;45.060;38.948;2023-06-22T09:29:54;8.27;;;5.25;;
64832;SDS011;51290;45.060;38.948;2023-06-22T09:32:20;6.28;;;4.63;;
64832;SDS011;51290;45.060;38.948;2023-06-22T09:34:46;8.45;;;5.03;;
64832;SDS011;51290;45.060;38.948;2023-06-22T09:37:13;6.60;;;4.78;;
64832;SDS011;51290;45.060;38.948;2023-06-22T09:39:39;8.80;;;5.78;;
64832;SDS011;51290;45.060;38.948;2023-06-22T09:42:05;8.30;;;5.35;;
64832;SDS011;51290;45.060;38.948;2023-06-22T09:44:31;8.00;;;4.80;;
64832;SDS011;51290;45.060;38.948;2023-06-22T09:46:57;7.70;;;4.30;;
64832;SDS011;51290;45.060;38.948;2023-06-22T09:49:23;8.68;;;4.90;;
64832;SDS011;51290;45.060;38.948;2023-06-22T09:51:50;7.00;;;5.15;;
64832;SDS011;51290;45.060;38.948;2023-06-22T09:54:17;6.65;;;4.97;;
64832;SDS011;51290;45.060;38.948;2023-06-22T09:56:43;7.75;;;5.45;;
64832;SDS011;51290;45.060;38.948;2023-06-22T09:59:09;11.70;;;5.25;;
64832;SDS011;51290;45.060;38.948;2023-06-22T10:01:35;9.23;;;4.90;;
64832;SDS011;51290;45.060;38.948;2023-06-22T10:04:02;8.45;;;4.38;;
64832;SDS011;51290;45.060;38.948;2023-06-22T10:06:28;8.07;;;5.13;;
64832;SDS011;51290;45.060;38.948;2023-06-22T10:08:54;8.20;;;4.53;;
64832;SDS011;51290;45.060;38.948;2023-06-22T10:11:20;12.30;;;5.10;;
64832;SDS011;51290;45.060;38.948;2023-06-22T10:13:52;8.85;;;5.55;;
64832;SDS011;51290;45.060;38.948;2023-06-22T10:16:18;9.40;;;4.95;;
64832;SDS011;51290;45.060;38.948;2023-06-22T10:18:44;7.95;;;4.75;;
64832;SDS011;51290;45.060;38.948;2023-06-22T10:21:10;7.32;;;4.60;;
64832;SDS011;51290;45.060;38.948;2023-06-22T10:23:36;8.05;;;5.28;;
64832;SDS011;51290;45.060;38.948;2023-06-22T10:26:02;7.38;;;5.00;;
64832;SDS011;51290;45.060;38.948;2023-06-22T10:28:28;9.57;;;5.20;;
64832;SDS011;51290;45.060;38.948;2023-06-22T10:30:54;12.52;;;5.00;;
64832;SDS011;51290;45.060;38.948;2023-06-22T10:33:20;9.50;;;5.20;;
64832;SDS011;51290;45.060;38.948;2023-06-22T10:35:46;8.68;;;5.65;;
64832;SDS011;51290;45.060;38.948;2023-06-22T10:38:12;8.07;;;4.97;;
64832;SDS011;51290;45.060;38.948;2023-06-22T10:40:38;7.90;;;4.75;;
64832;SDS011;51290;45.060;38.948;2023-06-22T10:43:05;7.28;;;5.03;;
64832;SDS011;51290;45.060;38.948;2023-06-22T10:45:30;7.00;;;4.45;;
64832;SDS011;51290;45.060;38.948;2023-06-22T10:47:56;6.88;;;4.90;;
64832;SDS011;51290;45.060;38.948;2023-06-22T10:50:22;11.55;;;5.35;;
64832;SDS011;51290;45.060;38.948;2023-06-22T10:52:51;11.57;;;5.75;;
64832;SDS011;51290;45.060;38.948;2023-06-22T10:55:17;11.27;;;4.63;;
64832;SDS011;51290;45.060;38.948;2023-06-22T10:57:43;17.83;;;5.90;;
64832;SDS011;51290;45.060;38.948;2023-06-22T11:00:12;8.35;;;5.03;;
64832;SDS011;51290;45.060;38.948;2023-06-22T11:02:39;7.30;;;4.93;;
64832;SDS011;51290;45.060;38.948;2023-06-22T11:05:05;8.45;;;5.50;;
64832;SDS011;51290;45.060;38.948;2023-06-22T11:07:32;7.97;;;5.28;;
64832;SDS011;51290;45.060;38.948;2023-06-22T11:09:58;8.10;;;4.93;;
64832;SDS011;51290;45.060;38.948;2023-06-22T11:12:27;7.63;;;5.03;;
64832;SDS011;51290;45.060;38.948;2023-06-22T11:14:53;7.65;;;5.10;;
64832;SDS011;51290;45.060;38.948;2023-06-22T11:17:21;5.55;;;4.60;;
64832;SDS011;51290;45.060;38.948;2023-06-22T11:19:47;9.07;;;5.03;;
64832;SDS011;51290;45.060;38.948;2023-06-22T11:22:13;8.13;;;4.90;;
64832;SDS011;51290;45.060;38.948;2023-06-22T11:24:39;7.40;;;4.72;;
64832;SDS011;51290;45.060;38.948;2023-06-22T11:27:05;10.63;;;5.43;;
64832;SDS011;51290;45.060;38.948;2023-06-22T11:29:32;7.75;;;5.13;;
64832;SDS011;51290;45.060;38.948;2023-06-22T11:31:58;13.23;;;5.00;;
64832;SDS011;51290;45.060;38.948;2023-06-22T11:34:24;6.45;;;4.40;;
64832;SDS011;51290;45.060;38.948;2023-06-22T11:36:50;9.10;;;5.13;;
64832;SDS011;51290;45.060;38.948;2023-06-22T11:39:16;10.48;;;6.88;;
64832;SDS011;51290;45.060;38.948;2023-06-22T11:41:42;9.95;;;4.75;;
64832;SDS011;51290;45.060;38.948;2023-06-22T11:44:08;11.20;;;4.97;;
64832;SDS011;51290;45.060;38.948;2023-06-22T11:46:34;6.10;;;4.53;;
64832;SDS011;51290;45.060;38.948;2023-06-22T11:49:01;14.15;;;5.72;;
64832;SDS011;51290;45.060;38.948;2023-06-22T11:51:28;8.52;;;4.60;;
64832;SDS011;51290;45.060;38.948;2023-06-22T11:53:56;10.30;;;4.82;;
64832;SDS011;51290;45.060;38.948;2023-06-22T11:56:23;7.22;;;4.75;;
64832;SDS011;51290;45.060;38.948;2023-06-22T11:58:49;7.75;;;4.72;;
64832;SDS011;51290;45.060;38.948;2023-06-22T12:01:15;6.22;;;4.70;;
64832;SDS011;51290;45.060;38.948;2023-06-22T12:03:41;5.65;;;4.28;;
64832;SDS011;51290;45.060;38.948;2023-06-22T12:06:10;7.22;;;4.25;;
64832;SDS011;51290;45.060;38.948;2023-06-22T12:08:36;8.35;;;4.03;;
64832;SDS011;51290;45.060;38.948;2023-06-22T12:11:05;6.75;;;4.65;;
64832;SDS011;51290;45.060;38.948;2023-06-22T12:13:33;6.55;;;4.35;;
64832;SDS011;51290;45.060;38.948;2023-06-22T12:15:59;7.15;;;4.65;;
64832;SDS011;51290;45.060;38.948;2023-06-22T12:18:25;12.88;;;4.88;;
64832;SDS011;51290;45.060;38.948;2023-06-22T12:20:51;9.60;;;4.85;;
64832;SDS011;51290;45.060;38.948;2023-06-22T12:23:17;7.75;;;4.65;;
64832;SDS011;51290;45.060;38.948;2023-06-22T12:25:45;8.00;;;4.38;;
64832;SDS011;51290;45.060;38.948;2023-06-22T12:28:11;18.20;;;4.72;;
64832;SDS011;51290;45.060;38.948;2023-06-22T12:30:37;6.32;;;4.30;;
64832;SDS011;51290;45.060;38.948;2023-06-22T12:33:03;9.32;;;4.55;;
64832;SDS011;51290;45.060;38.948;2023-06-22T12:35:29;9.82;;;4.32;;
64832;SDS011;51290;45.060;38.948;2023-06-22T12:37:55;5.57;;;4.05;;
64832;SDS011;51290;45.060;38.948;2023-06-22T12:40:21;9.93;;;4.97;;
64832;SDS011;51290;45.060;38.948;2023-06-22T12:42:47;8.23;;;4.60;;
64832;SDS011;51290;45.060;38.948;2023-06-22T12:45:13;5.63;;;4.50;;
64832;SDS011;51290;45.060;38.948;2023-06-22T12:47:39;5.65;;;4.03;;
64832;SDS011;51290;45.060;38.948;2023-06-22T12:50:06;9.65;;;4.80;;
64832;SDS011;51290;45.060;38.948;2023-06-22T12:52:32;5.90;;;4.07;;
64832;SDS011;51290;45.060;38.948;2023-06-22T12:54:58;7.07;;;4.63;;
64832;SDS011;51290;45.060;38.948;2023-06-22T12:57:24;9.10;;;4.22;;
64832;SDS011;51290;45.060;38.948;2023-06-22T12:59:50;7.38;;;4.72;;
64832;SDS011;51290;45.060;38.948;2023-06-22T13:02:17;8.75;;;4.78;;
64832;SDS011;51290;45.060;38.948;2023-06-22T13:04:43;5.80;;;4.35;;
64832;SDS011;51290;45.060;38.948;2023-06-22T13:07:09;11.02;;;4.35;;
64832;SDS011;51290;45.060;38.948;2023-06-22T13:09:36;6.80;;;4.20;;
64832;SDS011;51290;45.060;38.948;2023-06-22T13:12:02;8.85;;;4.28;;
64832;SDS011;51290;45.060;38.948;2023-06-22T13:14:28;9.07;;;4.53;;
64832;SDS011;51290;45.060;38.948;2023-06-22T13:16:54;7.10;;;4.30;;
64832;SDS011;51290;45.060;38.948;2023-06-22T13:19:20;10.80;;;4.03;;
64832;SDS011;51290;45.060;38.948;2023-06-22T13:21:47;6.05;;;4.18;;
64832;SDS011;51290;45.060;38.948;2023-06-22T13:24:13;7.00;;;4.30;;
64832;SDS011;51290;45.060;38.948;2023-06-22T13:26:39;5.20;;;3.95;;
64832;SDS011;51290;45.060;38.948;2023-06-22T13:29:05;12.85;;;3.47;;
64832;SDS011;51290;45.060;38.948;2023-06-22T13:31:31;7.78;;;4.50;;
64832;SDS011;51290;45.060;38.948;2023-06-22T13:33:57;7.45;;;4.63;;
64832;SDS011;51290;45.060;38.948;2023-06-22T13:36:23;8.52;;;4.45;;
64832;SDS011;51290;45.060;38.948;2023-06-22T13:38:49;6.38;;;4.15;;
64832;SDS011;51290;45.060;38.948;2023-06-22T13:41:15;8.40;;;4.10;;
64832;SDS011;51290;45.060;38.948;2023-06-22T13:43:41;6.78;;;3.88;;
64832;SDS011;51290;45.060;38.948;2023-06-22T13:46:07;5.90;;;3.95;;
64832;SDS011;51290;45.060;38.948;2023-06-22T13:48:35;8.35;;;3.60;;
64832;SDS011;51290;45.060;38.948;2023-06-22T13:51:01;7.50;;;3.92;;
64832;SDS011;51290;45.060;38.948;2023-06-22T13:53:27;5.90;;;4.15;;
64832;SDS011;51290;45.060;38.948;2023-06-22T13:55:53;5.03;;;3.53;;
64832;SDS011;51290;45.060;38.948;2023-06-22T13:58:19;7.13;;;4.28;;
64832;SDS011;51290;45.060;38.948;2023-06-22T14:00:45;5.65;;;3.50;;
64832;SDS011;51290;45.060;38.948;2023-06-22T14:03:11;8.50;;;3.63;;
64832;SDS011;51290;45.060;38.948;2023-06-22T14:05:41;5.18;;;3.50;;
64832;SDS011;51290;45.060;38.948;2023-06-22T14:08:07;4.97;;;3.53;;
64832;SDS011;51290;45.060;38.948;2023-06-22T14:10:34;6.93;;;3.83;;
64832;SDS011;51290;45.060;38.948;2023-06-22T14:13:00;8.00;;;3.78;;
64832;SDS011;51290;45.060;38.948;2023-06-22T14:15:26;7.97;;;3.78;;
64832;SDS011;51290;45.060;38.948;2023-06-22T14:17:52;6.60;;;3.70;;
64832;SDS011;51290;45.060;38.948;2023-06-22T14:20:18;6.63;;;3.40;;
64832;SDS011;51290;45.060;38.948;2023-06-22T14:22:44;7.78;;;3.53;;
64832;SDS011;51290;45.060;38.948;2023-06-22T14:25:10;8.80;;;3.42;;
64832;SDS011;51290;45.060;38.948;2023-06-22T14:27:36;5.65;;;3.55;;
64832;SDS011;51290;45.060;38.948;2023-06-22T14:30:02;4.97;;;3.30;;
64832;SDS011;51290;45.060;38.948;2023-06-22T14:32:28;7.03;;;3.40;;
64832;SDS011;51290;45.060;38.948;2023-06-22T14:34:57;5.60;;;3.05;;
64832;SDS011;51290;45.060;38.948;2023-06-22T14:37:23;5.72;;;3.47;;
64832;SDS011;51290;45.060;38.948;2023-06-22T14:39:49;6.38;;;3.75;;
64832;SDS011;51290;45.060;38.948;2023-06-22T14:42:15;5.40;;;3.38;;
64832;SDS011;51290;45.060;38.948;2023-06-22T14:44:41;5.30;;;3.53;;
64832;SDS011;51290;45.060;38.948;2023-06-22T14:47:07;7.72;;;3.88;;
64832;SDS011;51290;45.060;38.948;2023-06-22T14:49:33;4.95;;;3.28;;
64832;SDS011;51290;45.060;38.948;2023-06-22T14:52:01;6.53;;;3.80;;
64832;SDS011;51290;45.060;38.948;2023-06-22T14:54:27;6.07;;;3.00;;
64832;SDS011;51290;45.060;38.948;2023-06-22T14:56:53;4.00;;;3.03;;
64832;SDS011;51290;45.060;38.948;2023-06-22T14:59:19;5.15;;;3.05;;
64832;SDS011;51290;45.060;38.948;2023-06-22T15:01:45;4.32;;;3.00;;
64832;SDS011;51290;45.060;38.948;2023-06-22T15:04:11;5.60;;;3.05;;
64832;SDS011;51290;45.060;38.948;2023-06-22T15:06:37;4.95;;;3.17;;
64832;SDS011;51290;45.060;38.948;2023-06-22T15:09:03;4.63;;;3.00;;
64832;SDS011;51290;45.060;38.948;2023-06-22T15:11:29;6.43;;;3.38;;
64832;SDS011;51290;45.060;38.948;2023-06-22T15:13:58;10.82;;;3.47;;
64832;SDS011;51290;45.060;38.948;2023-06-22T15:16:27;8.07;;;2.85;;
64832;SDS011;51290;45.060;38.948;2023-06-22T15:18:53;4.43;;;3.25;;
64832;SDS011;51290;45.060;38.948;2023-06-22T15:21:19;6.03;;;3.50;;
64832;SDS011;51290;45.060;38.948;2023-06-22T15:23:45;9.98;;;3.13;;
64832;SDS011;51290;45.060;38.948;2023-06-22T15:26:11;5.68;;;3.42;;
64832;SDS011;51290;45.060;38.948;2023-06-22T15:28:37;5.72;;;3.78;;
64832;SDS011;51290;45.060;38.948;2023-06-22T15:31:05;6.32;;;3.72;;
64832;SDS011;51290;45.060;38.948;2023-06-22T15:33:31;5.63;;;2.60;;
64832;SDS011;51290;45.060;38.948;2023-06-22T15:35:57;3.42;;;2.90;;
64832;SDS011;51290;45.060;38.948;2023-06-22T15:38:28;5.55;;;3.10;;
64832;SDS011;51290;45.060;38.948;2023-06-22T15:40:54;3.75;;;2.88;;
64832;SDS011;51290;45.060;38.948;2023-06-22T15:43:20;10.60;;;3.58;;
64832;SDS011;51290;45.060;38.948;2023-06-22T15:45:46;7.30;;;3.65;;
64832;SDS011;51290;45.060;38.948;2023-06-22T15:48:15;3.90;;;2.88;;
64832;SDS011;51290;45.060;38.948;2023-06-22T15:50:41;4.65;;;3.45;;
64832;SDS011;51290;45.060;38.948;2023-06-22T15:53:07;4.03;;;2.95;;
64832;SDS011;51290;45.060;38.948;2023-06-22T15:55:33;6.30;;;3.83;;
64832;SDS011;51290;45.060;38.948;2023-06-22T15:58:00;6.43;;;3.70;;
64832;SDS011;51290;45.060;38.948;2023-06-22T16:00:26;6.80;;;3.72;;
64832;SDS011;51290;45.060;38.948;2023-06-22T16:02:52;7.55;;;3.42;;
64832;SDS011;51290;45.060;38.948;2023-06-22T16:05:19;4.63;;;3.20;;
64832;SDS011;51290;45.060;38.948;2023-06-22T16:07:45;2.80;;;2.55;;
64832;SDS011;51290;45.060;38.948;2023-06-22T16:10:11;4.90;;;2.90;;
64832;SDS011;51290;45.060;38.948;2023-06-22T16:12:41;6.85;;;3.38;;
64832;SDS011;51290;45.060;38.948;2023-06-22T16:15:08;5.55;;;3.10;;
64832;SDS011;51290;45.060;38.948;2023-06-22T16:17:34;5.60;;;3.47;;
64832;SDS011;51290;45.060;38.948;2023-06-22T16:20:04;5.65;;;2.90;;
64832;SDS011;51290;45.060;38.948;2023-06-22T16:22:31;8.30;;;3.25;;
64832;SDS011;51290;45.060;38.948;2023-06-22T16:24:58;6.78;;;3.38;;
64832;SDS011;51290;45.060;38.948;2023-06-22T16:27:24;5.85;;;2.95;;
64832;SDS011;51290;45.060;38.948;2023-06-22T16:29:50;6.80;;;3.15;;
64832;SDS011;51290;45.060;38.948;2023-06-22T16:32:16;4.90;;;3.10;;
64832;SDS011;51290;45.060;38.948;2023-06-22T16:34:43;6.90;;;4.22;;
64832;SDS011;51290;45.060;38.948;2023-06-22T16:37:12;5.65;;;3.50;;
64832;SDS011;51290;45.060;38.948;2023-06-22T16:39:38;5.75;;;3.53;;
64832;SDS011;51290;45.060;38.948;2023-06-22T16:42:05;7.03;;;3.63;;
64832;SDS011;51290;45.060;38.948;2023-06-22T16:44:31;6.13;;;3.13;;
64832;SDS011;51290;45.060;38.948;2023-06-22T16:46:58;8.05;;;3.80;;
64832;SDS011;51290;45.060;38.948;2023-06-22T16:49:25;7.72;;;4.63;;
64832;SDS011;51290;45.060;38.948;2023-06-22T16:51:51;17.00;;;4.63;;
64832;SDS011;51290;45.060;38.948;2023-06-22T16:54:17;8.77;;;4.75;;
64832;SDS011;51290;45.060;38.948;2023-06-22T16:56:45;7.68;;;4.20;;
64832;SDS011;51290;45.060;38.948;2023-06-22T16:59:11;6.50;;;3.90;;
64832;SDS011;51290;45.060;38.948;2023-06-22T17:01:41;6.72;;;4.10;;
64832;SDS011;51290;45.060;38.948;2023-06-22T17:04:21;5.22;;;3.42;;
64832;SDS011;51290;45.060;38.948;2023-06-22T17:07:12;10.82;;;4.50;;
64832;SDS011;51290;45.060;38.948;2023-06-22T17:09:45;9.52;;;4.07;;
64832;SDS011;51290;45.060;38.948;2023-06-22T17:12:12;7.68;;;4.75;;
64832;SDS011;51290;45.060;38.948;2023-06-22T17:14:43;5.70;;;3.55;;
64832;SDS011;51290;45.060;38.948;2023-06-22T17:17:11;6.05;;;3.55;;
64832;SDS011;51290;45.060;38.948;2023-06-22T17:19:40;4.78;;;3.28;;
64832;SDS011;51290;45.060;38.948;2023-06-22T17:22:06;6.22;;;3.55;;
64832;SDS011;51290;45.060;38.948;2023-06-22T17:24:32;7.80;;;3.60;;
64832;SDS011;51290;45.060;38.948;2023-06-22T17:26:58;9.13;;;4.25;;
64832;SDS011;51290;45.060;38.948;2023-06-22T17:29:31;10.25;;;4.45;;
64832;SDS011;51290;45.060;38.948;2023-06-22T17:32:01;18.45;;;4.22;;
64832;SDS011;51290;45.060;38.948;2023-06-22T17:34:29;22.42;;;15.60;;
64832;SDS011;51290;45.060;38.948;2023-06-22T17:36:56;8.43;;;4.53;;
64832;SDS011;51290;45.060;38.948;2023-06-22T17:39:26;10.07;;;4.65;;
64832;SDS011;51290;45.060;38.948;2023-06-22T17:41:54;7.35;;;3.95;;
64832;SDS011;51290;45.060;38.948;2023-06-22T17:44:24;9.32;;;3.80;;
64832;SDS011;51290;45.060;38.948;2023-06-22T17:46:54;7.82;;;3.88;;
64832;SDS011;51290;45.060;38.948;2023-06-22T17:49:25;7.32;;;4.10;;
64832;SDS011;51290;45.060;38.948;2023-06-22T17:51:53;10.10;;;4.22;;
64832;SDS011;51290;45.060;38.948;2023-06-22T17:54:19;9.38;;;3.92;;
64832;SDS011;51290;45.060;38.948;2023-06-22T17:56:49;9.95;;;3.97;;
64832;SDS011;51290;45.060;38.948;2023-06-22T17:59:18;10.40;;;3.78;;
64832;SDS011;51290;45.060;38.948;2023-06-22T18:01:45;7.45;;;4.30;;
64832;SDS011;51290;45.060;38.948;2023-06-22T18:04:13;5.45;;;3.13;;
64832;SDS011;51290;45.060;38.948;2023-06-22T18:06:41;8.10;;;3.47;;
64832;SDS011;51290;45.060;38.948;2023-06-22T18:09:09;7.88;;;4.60;;
64832;SDS011;51290;45.060;38.948;2023-06-22T18:11:46;9.02;;;4.97;;
64832;SDS011;51290;45.060;38.948;2023-06-22T18:14:17;9.25;;;4.35;;
64832;SDS011;51290;45.060;38.948;2023-06-22T18:16:44;7.20;;;4.25;;
64832;SDS011;51290;45.060;38.948;2023-06-22T18:19:15;13.13;;;7.65;;
64832;SDS011;51290;45.060;38.948;2023-06-22T18:21:47;12.73;;;5.35;;
64832;SDS011;51290;45.060;38.948;2023-06-22T18:24:17;8.13;;;4.53;;
64832;SDS011;51290;45.060;38.948;2023-06-22T18:26:44;7.07;;;4.03;;
64832;SDS011;51290;45.060;38.948;2023-06-22T18:29:11;10.45;;;4.30;;
64832;SDS011;51290;45.060;38.948;2023-06-22T18:31:37;9.65;;;4.07;;
64832;SDS011;51290;45.060;38.948;2023-06-22T18:34:04;9.13;;;4.45;;
64832;SDS011;51290;45.060;38.948;2023-06-22T18:36:42;9.27;;;4.05;;
64832;SDS011;51290;45.060;38.948;2023-06-22T18:39:11;9.85;;;4.07;;
64832;SDS011;51290;45.060;38.948;2023-06-22T18:41:39;14.40;;;4.22;;
64832;SDS011;51290;45.060;38.948;2023-06-22T18:46:58;10.90;;;4.35;;
64832;SDS011;51290;45.060;38.948;2023-06-22T18:49:25;9.05;;;3.67;;
64832;SDS011;51290;45.060;38.948;2023-06-22T18:52:03;5.28;;;3.90;;
64832;SDS011;51290;45.060;38.948;2023-06-22T18:57:13;6.18;;;3.80;;
64832;SDS011;51290;45.060;38.948;2023-06-22T19:02:16;8.02;;;4.90;;
64832;SDS011;51290;45.060;38.948;2023-06-22T19:10:21;8.70;;;3.28;;
64832;SDS011;51290;45.060;38.948;2023-06-22T19:12:55;7.75;;;3.58;;
64832;SDS011;51290;45.060;38.948;2023-06-22T19:15:40;6.63;;;3.40;;
64832;SDS011;51290;45.060;38.948;2023-06-22T19:18:36;7.90;;;3.92;;
64832;SDS011;51290;45.060;38.948;2023-06-22T19:21:07;7.25;;;3.67;;
64832;SDS011;51290;45.060;38.948;2023-06-22T19:23:35;8.75;;;4.20;;
64832;SDS011;51290;45.060;38.948;2023-06-22T19:26:10;5.80;;;3.70;;
64832;SDS011;51290;45.060;38.948;2023-06-22T19:28:47;6.65;;;3.67;;
64832;SDS011;51290;45.060;38.948;2023-06-22T19:31:15;8.20;;;3.43;;
64832;SDS011;51290;45.060;38.948;2023-06-22T19:33:43;7.20;;;3.58;;
64832;SDS011;51290;45.060;38.948;2023-06-22T19:36:09;8.40;;;3.72;;
64832;SDS011;51290;45.060;38.948;2023-06-22T19:38:38;8.63;;;3.40;;
64832;SDS011;51290;45.060;38.948;2023-06-22T19:41:07;6.85;;;3.83;;
64832;SDS011;51290;45.060;38.948;2023-06-22T19:43:34;6.03;;;3.33;;
64832;SDS011;51290;45.060;38.948;2023-06-22T19:46:01;5.72;;;3.40;;
64832;SDS011;51290;45.060;38.948;2023-06-22T19:48:28;7.65;;;3.33;;
64832;SDS011;51290;45.060;38.948;2023-06-22T19:50:56;7.97;;;3.28;;
64832;SDS011;51290;45.060;38.948;2023-06-22T19:53:27;7.53;;;3.33;;
64832;SDS011;51290;45.060;38.948;2023-06-22T19:55:53;5.43;;;3.40;;
64832;SDS011;51290;45.060;38.948;2023-06-22T19:58:20;12.30;;;4.05;;
64832;SDS011;51290;45.060;38.948;2023-06-22T20:00:49;7.10;;;3.65;;
64832;SDS011;51290;45.060;38.948;2023-06-22T20:03:28;9.13;;;3.88;;
64832;SDS011;51290;45.060;38.948;2023-06-22T20:06:15;4.38;;;3.15;;
64832;SDS011;51290;45.060;38.948;2023-06-22T20:08:45;6.82;;;3.38;;
64832;SDS011;51290;45.060;38.948;2023-06-22T20:11:12;11.35;;;3.55;;
64832;SDS011;51290;45.060;38.948;2023-06-22T20:13:45;7.22;;;3.55;;
64832;SDS011;51290;45.060;38.948;2023-06-22T20:16:15;9.38;;;3.70;;
64832;SDS011;51290;45.060;38.948;2023-06-22T20:18:43;5.03;;;3.35;;
64832;SDS011;51290;45.060;38.948;2023-06-22T20:21:09;5.22;;;3.22;;
64832;SDS011;51290;45.060;38.948;2023-06-22T20:23:36;8.38;;;3.53;;
64832;SDS011;51290;45.060;38.948;2023-06-22T20:26:02;7.07;;;3.55;;
64832;SDS011;51290;45.060;38.948;2023-06-22T20:28:28;5.90;;;3.40;;